createdAt,value
2022-11-23T00:02:42.635Z,1.17
2022-11-23T00:05:31.216Z,0.57
2022-11-23T00:08:19.711Z,0.60
2022-11-23T00:11:06.899Z,0.80
2022-11-23T00:13:54.792Z,0.83
2022-11-23T00:16:41.889Z,0.80
2022-11-23T00:19:29.127Z,0.70
2022-11-23T00:22:16.231Z,0.80
2022-11-23T00:25:05.305Z,0.53
2022-11-23T00:27:52.588Z,1.00
2022-11-23T00:30:39.865Z,0.67
2022-11-23T00:33:26.760Z,0.83
2022-11-23T00:36:15.730Z,0.77
2022-11-23T00:39:02.831Z,0.80
2022-11-23T00:41:51.191Z,1.00
2022-11-23T00:44:38.369Z,0.53
2022-11-23T00:47:25.610Z,0.83
2022-11-23T00:50:12.759Z,0.83
2022-11-23T00:52:59.972Z,0.57
2022-11-23T00:55:52.747Z,0.97
2022-11-23T00:58:41.322Z,0.80
2022-11-23T01:01:33.888Z,1.10
2022-11-23T01:04:21.281Z,0.70
2022-11-23T01:07:08.074Z,1.03
2022-11-23T01:09:55.347Z,0.80
2022-11-23T01:12:42.789Z,0.60
2022-11-23T01:15:31.219Z,0.90
2022-11-23T01:18:18.674Z,0.70
2022-11-23T01:21:05.889Z,0.83
2022-11-23T01:23:52.620Z,0.70
2022-11-23T01:26:39.514Z,1.17
2022-11-23T01:29:26.680Z,0.70
2022-11-23T01:32:15.311Z,0.60
2022-11-23T01:35:02.524Z,0.60
2022-11-23T01:37:49.645Z,0.60
2022-11-23T01:40:42.790Z,0.43
2022-11-23T01:43:30.143Z,0.73
2022-11-23T01:46:17.711Z,1.20
2022-11-23T01:49:08.964Z,1.00
2022-11-23T01:51:59.459Z,0.73
2022-11-23T01:54:51.387Z,0.97
2022-11-23T01:57:43.246Z,0.53
2022-11-23T02:00:30.747Z,1.03
2022-11-23T02:03:18.601Z,0.53
2022-11-23T02:06:13.049Z,0.90
2022-11-23T02:09:01.257Z,0.80
2022-11-23T02:11:48.359Z,0.60
2022-11-23T02:14:35.622Z,0.80
2022-11-23T02:17:22.536Z,0.50
2022-11-23T02:20:12.166Z,0.57
2022-11-23T02:23:13.989Z,0.77
2022-11-23T02:26:06.894Z,0.70
2022-11-23T02:28:58.905Z,0.87
2022-11-23T02:31:45.526Z,1.00
2022-11-23T02:34:32.726Z,0.80
2022-11-23T02:37:20.385Z,0.60
2022-11-23T02:40:18.275Z,0.83
2022-11-23T02:43:06.560Z,0.57
2022-11-23T02:45:56.799Z,0.70
2022-11-23T02:48:43.562Z,1.37
2022-11-23T02:51:30.552Z,0.60
2022-11-23T02:54:17.730Z,1.10
2022-11-23T02:57:05.012Z,0.97
2022-11-23T02:59:53.494Z,0.90
2022-11-23T03:02:40.615Z,1.00
2022-11-23T03:05:27.626Z,0.80
2022-11-23T03:08:15.031Z,0.60
2022-11-23T03:11:03.015Z,0.70
2022-11-23T03:13:49.801Z,0.80
2022-11-23T03:16:37.978Z,0.77
2022-11-23T03:19:24.809Z,0.80
2022-11-23T03:22:11.883Z,1.10
2022-11-23T03:24:58.966Z,0.43
2022-11-23T03:27:46.125Z,0.87
2022-11-23T03:30:33.362Z,0.70
2022-11-23T03:33:22.172Z,0.57
2022-11-23T03:36:09.783Z,0.83
2022-11-23T03:38:56.674Z,0.60
2022-11-23T03:41:43.466Z,0.87
2022-11-23T03:44:30.563Z,0.90
2022-11-23T03:47:17.899Z,0.67
2022-11-23T03:50:06.922Z,0.93
2022-11-23T03:52:53.893Z,0.80
2022-11-23T03:55:41.194Z,0.70
2022-11-23T03:58:28.051Z,0.93
2022-11-23T04:01:15.140Z,0.80
2022-11-23T04:04:02.203Z,0.90
2022-11-23T04:06:50.426Z,1.03
2022-11-23T04:09:39.295Z,1.17
2022-11-23T04:12:26.481Z,0.80
2022-11-23T04:15:13.969Z,0.77
2022-11-23T04:18:01.429Z,1.10
2022-11-23T04:20:48.340Z,0.63
2022-11-23T04:23:36.768Z,0.67
2022-11-23T04:26:25.030Z,0.70
2022-11-23T04:29:12.097Z,0.80
2022-11-23T04:31:58.783Z,0.80
2022-11-23T04:34:46.032Z,0.93
2022-11-23T04:37:32.784Z,0.97
2022-11-23T04:40:20.924Z,0.50
2022-11-23T04:43:09.644Z,0.70
2022-11-23T04:45:56.796Z,0.80
2022-11-23T04:48:43.624Z,0.70
2022-11-23T04:51:30.881Z,1.67
2022-11-23T04:54:17.744Z,1.37
2022-11-23T04:57:07.730Z,0.97
2022-11-23T04:59:54.648Z,0.70
2022-11-23T05:02:41.781Z,0.77
2022-11-23T05:05:28.682Z,0.60
2022-11-23T05:08:15.543Z,0.70
2022-11-23T05:11:02.416Z,0.63
2022-11-23T05:13:51.236Z,0.93
2022-11-23T05:16:38.316Z,0.87
2022-11-23T05:19:25.598Z,1.10
2022-11-23T05:22:13.134Z,0.50
2022-11-23T05:25:01.176Z,0.97
2022-11-23T05:27:48.507Z,0.60
2022-11-23T05:30:37.194Z,0.90
2022-11-23T05:33:23.980Z,1.00
2022-11-23T05:36:13.919Z,1.23
2022-11-23T05:39:00.894Z,0.80
2022-11-23T05:41:47.980Z,0.83
2022-11-23T05:44:35.026Z,0.70
2022-11-23T05:47:23.804Z,0.93
2022-11-23T05:50:11.388Z,1.10
2022-11-23T05:52:58.459Z,1.00
2022-11-23T05:55:45.938Z,0.63
2022-11-23T05:58:32.948Z,0.73
2022-11-23T06:01:19.927Z,0.90
2022-11-23T06:04:08.655Z,1.10
2022-11-23T06:06:57.462Z,1.03
2022-11-23T06:09:44.496Z,0.60
2022-11-23T06:12:31.963Z,0.87
2022-11-23T06:15:20.094Z,0.80
2022-11-23T06:18:07.179Z,1.20
2022-11-23T06:20:55.666Z,1.90
2022-11-23T06:23:42.921Z,0.83
2022-11-23T06:26:30.228Z,1.50
2022-11-23T06:29:17.324Z,0.60
2022-11-23T06:32:04.901Z,1.00
2022-11-23T06:34:51.761Z,0.80
2022-11-23T06:37:40.482Z,0.80
2022-11-23T06:40:28.954Z,1.27
2022-11-23T06:43:15.881Z,0.60
2022-11-23T06:46:06.858Z,1.07
2022-11-23T06:48:53.809Z,0.73
2022-11-23T06:51:40.721Z,0.60
2022-11-23T06:54:29.254Z,0.70
2022-11-23T06:57:16.398Z,0.93
2022-11-23T07:00:05.382Z,0.60
2022-11-23T07:02:54.106Z,0.90
2022-11-23T07:05:41.125Z,1.20
2022-11-23T07:08:28.554Z,1.20
2022-11-23T07:11:16.754Z,1.20
2022-11-23T07:14:04.041Z,1.37
2022-11-23T07:16:51.340Z,0.93
2022-11-23T07:19:38.499Z,1.10
2022-11-23T07:22:25.354Z,1.83
2022-11-23T07:25:16.663Z,1.60
2022-11-23T07:28:06.971Z,1.03
2022-11-23T07:30:53.871Z,2.20
2022-11-23T07:33:41.203Z,1.63
2022-11-23T07:36:28.294Z,1.40
2022-11-23T07:39:15.180Z,1.30
2022-11-23T07:42:31.201Z,1.60
2022-11-23T07:45:12.468Z,1.90
2022-11-23T07:48:00.670Z,2.60
2022-11-23T07:50:47.761Z,2.17
2022-11-23T07:53:36.114Z,2.60
2022-11-23T07:56:24.441Z,2.00
2022-11-23T07:59:11.717Z,1.90
2022-11-23T08:02:00.077Z,1.63
2022-11-23T08:04:47.031Z,2.43
2022-11-23T08:07:34.230Z,2.60
2022-11-23T08:10:21.316Z,2.83
2022-11-23T08:13:08.812Z,2.00
2022-11-23T08:15:56.235Z,2.27
2022-11-23T08:18:44.828Z,2.27
2022-11-23T08:21:31.995Z,2.23
2022-11-23T08:24:18.611Z,1.60
2022-11-23T08:27:05.449Z,1.50
2022-11-23T08:29:52.375Z,1.40
2022-11-23T08:32:39.642Z,1.70
2022-11-23T08:35:27.794Z,1.70
2022-11-23T08:38:14.811Z,1.80
2022-11-23T08:41:02.816Z,1.43
2022-11-23T08:43:49.866Z,1.80
2022-11-23T08:46:36.870Z,1.50
2022-11-23T08:49:23.718Z,1.43
2022-11-23T08:52:12.015Z,1.47
2022-11-23T08:54:58.994Z,0.77
2022-11-23T08:57:45.834Z,1.60
2022-11-23T09:00:33.315Z,1.97
2022-11-23T09:03:20.349Z,1.50
2022-11-23T09:06:10.141Z,1.67
2022-11-23T09:08:58.378Z,1.80
2022-11-23T09:11:45.622Z,1.30
2022-11-23T09:14:33.284Z,1.13
2022-11-23T09:17:20.304Z,1.63
2022-11-23T09:20:08.301Z,1.50
2022-11-23T09:22:55.476Z,1.67
2022-11-23T09:25:47.884Z,1.57
2022-11-23T09:28:39.088Z,1.57
2022-11-23T09:31:29.030Z,2.00
2022-11-23T09:34:16.086Z,1.60
2022-11-23T09:37:03.106Z,1.50
2022-11-23T09:39:49.769Z,1.30
2022-11-23T09:43:09.319Z,1.40
2022-11-23T09:45:59.838Z,1.43
2022-11-23T09:49:01.287Z,1.13
2022-11-23T09:51:48.674Z,1.20
2022-11-23T09:54:39.040Z,1.00
2022-11-23T09:57:29.560Z,1.07
2022-11-23T10:00:22.528Z,0.70
2022-11-23T10:03:15.850Z,0.65
2022-11-23T10:06:08.030Z,1.00
2022-11-23T10:09:16.502Z,0.90
2022-11-23T10:12:16.353Z,1.52
2022-11-23T10:15:11.116Z,0.77
2022-11-23T10:18:30.627Z,1.30
2022-11-23T10:21:26.524Z,0.80
2022-11-23T10:24:20.510Z,0.93
2022-11-23T10:27:15.531Z,1.20
2022-11-23T10:30:02.907Z,0.95
2022-11-23T10:32:53.714Z,1.15
2022-11-23T10:35:42.369Z,1.20
2022-11-23T10:38:29.941Z,1.00
2022-11-23T10:41:17.171Z,0.97
2022-11-23T10:44:08.269Z,1.13
2022-11-23T10:46:55.496Z,0.80
2022-11-23T10:49:58.679Z,0.90
2022-11-23T10:52:52.179Z,0.73
2022-11-23T10:55:49.518Z,0.75
2022-11-23T10:58:44.703Z,1.08
2022-11-23T11:01:31.711Z,1.00
2022-11-23T11:04:26.088Z,0.98
2022-11-23T11:07:22.490Z,0.90
2022-11-23T11:10:35.492Z,0.80
2022-11-23T11:13:29.958Z,0.93
2022-11-23T11:16:22.580Z,0.90
2022-11-23T11:19:24.424Z,0.90
2022-11-23T11:22:29.410Z,0.68
2022-11-23T11:25:30.907Z,0.70
2022-11-23T11:28:26.389Z,0.90
2022-11-23T11:31:45.834Z,0.90
2022-11-23T11:34:39.653Z,0.80
2022-11-23T11:37:35.510Z,0.90
2022-11-23T11:40:29.836Z,0.82
2022-11-23T11:43:29.281Z,1.00
2022-11-23T11:46:31.413Z,1.07
2022-11-23T11:49:25.805Z,0.80
2022-11-23T11:52:19.358Z,0.93
2022-11-23T11:55:13.161Z,0.90
2022-11-23T11:58:05.302Z,0.77
2022-11-23T12:01:01.450Z,0.70
2022-11-23T12:03:52.858Z,0.80
2022-11-23T12:06:49.796Z,0.77
2022-11-23T12:09:41.944Z,1.10
2022-11-23T12:12:30.250Z,1.00
2022-11-23T12:15:47.825Z,0.57
2022-11-23T12:19:00.929Z,0.87
2022-11-23T12:22:18.936Z,0.83
2022-11-23T12:25:25.163Z,0.50
2022-11-23T12:28:29.601Z,0.47
2022-11-23T12:31:28.925Z,0.60
2022-11-23T12:34:38.092Z,0.40
2022-11-23T12:37:40.926Z,0.80
2022-11-23T12:40:39.451Z,0.93
2022-11-23T12:43:36.733Z,0.40
2022-11-23T12:46:31.807Z,1.00
2022-11-23T12:49:34.859Z,0.70
2022-11-23T12:52:41.573Z,0.70
2022-11-23T12:55:38.984Z,0.70
2022-11-23T12:58:29.254Z,0.80
2022-11-23T13:01:20.393Z,0.70
2022-11-23T13:04:39.140Z,0.80
2022-11-23T13:08:10.850Z,0.70
2022-11-23T13:11:08.386Z,0.40
2022-11-23T13:14:18.025Z,0.57
2022-11-23T13:17:16.371Z,0.87
2022-11-23T13:20:35.645Z,0.80
2022-11-23T13:23:23.626Z,0.80
2022-11-23T13:26:15.723Z,0.70
2022-11-23T13:29:38.137Z,0.67
2022-11-23T13:32:53.182Z,0.70
2022-11-23T13:35:57.550Z,0.70
2022-11-23T13:38:45.606Z,0.93
2022-11-23T13:42:00.553Z,0.97
2022-11-23T13:44:47.876Z,1.23
2022-11-23T13:47:36.457Z,0.60
2022-11-23T13:50:25.306Z,1.00
2022-11-23T13:53:24.800Z,1.23
2022-11-23T13:56:27.237Z,0.80
2022-11-23T13:59:32.634Z,0.97
2022-11-23T14:02:30.054Z,0.80
2022-11-23T14:05:52.898Z,1.03
2022-11-23T14:08:42.309Z,0.80
2022-11-23T14:11:30.774Z,1.40
2022-11-23T14:14:26.409Z,1.07
2022-11-23T14:17:46.698Z,1.20
2022-11-23T14:20:58.761Z,1.33
2022-11-23T14:24:19.426Z,1.20
2022-11-23T14:27:50.399Z,1.13
2022-11-23T14:30:58.425Z,1.50
2022-11-23T14:33:54.730Z,1.60
2022-11-23T14:36:50.765Z,1.70
2022-11-23T14:40:13.574Z,1.20
2022-11-23T14:43:03.092Z,1.40
2022-11-23T14:45:50.150Z,1.53
2022-11-23T14:48:37.691Z,1.30
2022-11-23T14:51:27.353Z,1.30
2022-11-23T14:54:17.432Z,1.27
2022-11-23T14:57:08.221Z,1.70
2022-11-23T14:59:58.026Z,1.70
2022-11-23T15:02:45.494Z,1.60
2022-11-23T15:05:35.092Z,1.43
2022-11-23T15:08:26.246Z,1.53
2022-11-23T15:11:16.068Z,1.87
2022-11-23T15:14:04.707Z,1.57
2022-11-23T15:16:51.768Z,1.40
2022-11-23T15:19:38.957Z,1.23
2022-11-23T15:22:27.248Z,1.43
2022-11-23T15:25:19.527Z,1.60
2022-11-23T15:28:17.762Z,1.27
2022-11-23T15:31:20.918Z,1.47
2022-11-23T15:34:14.725Z,1.17
2022-11-23T15:37:02.222Z,1.30
2022-11-23T15:39:49.913Z,1.70
2022-11-23T15:42:36.922Z,1.83
2022-11-23T15:45:58.405Z,1.47
2022-11-23T15:48:50.509Z,1.60
2022-11-23T15:51:41.521Z,1.13
2022-11-23T15:54:33.583Z,1.33
2022-11-23T15:57:26.176Z,0.97
2022-11-23T16:00:25.065Z,2.03
2022-11-23T16:03:34.456Z,2.00
2022-11-23T16:06:34.640Z,1.63
2022-11-23T16:09:54.815Z,1.83
2022-11-23T16:12:50.157Z,1.50
2022-11-23T16:15:42.157Z,1.80
2022-11-23T16:18:31.717Z,1.50
2022-11-23T16:21:21.128Z,1.70
2022-11-23T16:24:21.398Z,1.77
2022-11-23T16:27:16.159Z,1.63
2022-11-23T16:30:04.797Z,1.50
2022-11-23T16:32:51.650Z,1.50
2022-11-23T16:35:38.301Z,1.10
2022-11-23T16:38:26.024Z,1.50
2022-11-23T16:41:14.456Z,1.50
2022-11-23T16:44:01.621Z,1.57
2022-11-23T16:46:49.328Z,1.70
2022-11-23T16:49:37.032Z,1.60
2022-11-23T16:52:25.199Z,1.60
2022-11-23T16:55:12.486Z,2.10
2022-11-23T16:58:01.147Z,1.57
2022-11-23T17:00:53.066Z,1.80
2022-11-23T17:03:41.431Z,1.60
2022-11-23T17:06:28.652Z,1.90
2022-11-23T17:09:15.610Z,1.77
2022-11-23T17:12:04.059Z,1.10
2022-11-23T17:14:52.633Z,1.57
2022-11-23T17:17:39.871Z,1.30
2022-11-23T17:20:27.146Z,0.97
2022-11-23T17:23:14.181Z,1.47
2022-11-23T17:26:01.645Z,1.07
2022-11-23T17:28:49.003Z,0.90
2022-11-23T17:31:37.369Z,0.90
2022-11-23T17:34:24.627Z,0.87
2022-11-23T17:37:18.531Z,0.50
2022-11-23T17:40:06.564Z,0.60
2022-11-23T17:42:53.705Z,0.43
2022-11-23T17:46:08.305Z,0.50
2022-11-23T17:49:02.549Z,0.70
2022-11-23T17:51:49.918Z,0.50
2022-11-23T17:54:57.744Z,0.40
2022-11-23T17:58:00.741Z,0.70
2022-11-23T18:00:48.111Z,0.43
2022-11-23T18:03:35.400Z,0.57
2022-11-23T18:06:25.464Z,0.93
2022-11-23T18:09:13.080Z,0.40
2022-11-23T18:12:02.508Z,0.80
2022-11-23T18:14:49.760Z,0.40
2022-11-23T18:17:36.893Z,0.57
2022-11-23T18:20:24.587Z,0.30
2022-11-23T18:23:13.230Z,0.70
2022-11-23T18:26:02.020Z,0.40
2022-11-23T18:28:49.891Z,0.80
2022-11-23T18:31:37.198Z,0.40
2022-11-23T18:34:24.525Z,0.33
2022-11-23T18:37:11.830Z,0.60
2022-11-23T18:40:22.231Z,0.40
2022-11-23T18:43:33.724Z,0.43
2022-11-23T18:46:21.324Z,0.60
2022-11-23T18:49:09.624Z,0.70
2022-11-23T18:51:57.089Z,0.37
2022-11-23T18:54:44.186Z,0.63
2022-11-23T18:57:32.855Z,0.60
2022-11-23T19:00:30.970Z,0.67
2022-11-23T19:03:17.877Z,0.87
2022-11-23T19:06:06.020Z,0.70
2022-11-23T19:08:55.014Z,0.57
2022-11-23T19:11:42.642Z,0.97
2022-11-23T19:14:33.463Z,0.57
2022-11-23T19:17:56.605Z,0.53
2022-11-23T19:20:49.256Z,1.00
2022-11-23T19:23:36.221Z,1.20
2022-11-23T19:26:24.586Z,1.03
2022-11-23T19:29:12.032Z,0.97
2022-11-23T19:32:00.494Z,1.03
2022-11-23T19:34:47.769Z,1.10
2022-11-23T19:37:36.710Z,1.10
2022-11-23T19:40:23.595Z,0.73
2022-11-23T19:43:10.801Z,1.03
2022-11-23T19:45:58.335Z,0.77
2022-11-23T19:48:58.607Z,0.80
2022-11-23T19:51:51.120Z,0.90
2022-11-23T19:54:38.346Z,0.90
2022-11-23T19:57:25.418Z,0.80
2022-11-23T20:00:13.612Z,0.70
2022-11-23T20:03:00.881Z,1.20
2022-11-23T20:05:57.839Z,0.70
2022-11-23T20:08:45.613Z,1.00
2022-11-23T20:11:34.294Z,1.10
2022-11-23T20:14:21.689Z,1.57
2022-11-23T20:17:09.057Z,1.20
2022-11-23T20:19:56.575Z,1.00
2022-11-23T20:22:45.554Z,1.53
2022-11-23T20:25:36.370Z,0.90
2022-11-23T20:28:23.352Z,1.00
2022-11-23T20:31:20.185Z,1.20
2022-11-23T20:34:10.098Z,1.03
2022-11-23T20:37:00.113Z,0.63
2022-11-23T20:39:48.917Z,0.93
2022-11-23T20:42:36.206Z,1.20
2022-11-23T20:45:24.076Z,1.17
2022-11-23T20:48:14.169Z,1.03
2022-11-23T20:51:05.007Z,1.50
2022-11-23T20:53:56.660Z,0.93
2022-11-23T20:56:46.512Z,0.60
2022-11-23T20:59:34.654Z,1.20
2022-11-23T21:02:22.050Z,1.10
2022-11-23T21:05:10.313Z,1.27
2022-11-23T21:07:57.854Z,1.13
2022-11-23T21:11:02.604Z,1.00
2022-11-23T21:14:15.619Z,1.00
2022-11-23T21:17:05.157Z,0.50
2022-11-23T21:19:52.239Z,1.63
2022-11-23T21:22:39.487Z,1.07
2022-11-23T21:25:26.922Z,1.23
2022-11-23T21:28:13.903Z,1.20
2022-11-23T21:31:08.902Z,0.80
2022-11-23T21:33:56.026Z,0.83
2022-11-23T21:36:43.555Z,1.07
2022-11-23T21:39:33.109Z,0.50
2022-11-23T21:42:20.295Z,0.80
2022-11-23T21:45:08.196Z,0.90
2022-11-23T21:47:57.360Z,1.07
2022-11-23T21:50:45.452Z,1.20
2022-11-23T21:53:32.846Z,0.90
2022-11-23T21:56:19.743Z,1.10
2022-11-23T21:59:07.438Z,0.83
2022-11-23T22:01:57.223Z,1.63
2022-11-23T22:04:45.478Z,1.73
2022-11-23T22:07:34.737Z,1.10
2022-11-23T22:10:22.065Z,0.80
2022-11-23T22:13:09.755Z,1.03
2022-11-23T22:16:20.842Z,0.90
2022-11-23T22:19:08.354Z,0.60
2022-11-23T22:21:57.593Z,0.40
2022-11-23T22:24:44.534Z,0.60
2022-11-23T22:27:31.626Z,0.33
2022-11-23T22:30:18.923Z,0.40
2022-11-23T22:33:05.865Z,0.63
2022-11-23T22:35:52.565Z,0.47
2022-11-23T22:38:41.240Z,0.70
2022-11-23T22:41:28.276Z,0.77
2022-11-23T22:44:15.294Z,0.43
2022-11-23T22:47:02.621Z,0.70
2022-11-23T22:49:49.238Z,0.73
2022-11-23T22:52:36.405Z,0.40
2022-11-23T22:55:24.630Z,0.53
2022-11-23T22:58:11.706Z,0.40
2022-11-23T23:00:59.152Z,0.57
2022-11-23T23:03:47.220Z,0.50
2022-11-23T23:06:35.474Z,0.57
2022-11-23T23:09:22.642Z,0.50
2022-11-23T23:12:11.295Z,0.73
2022-11-23T23:14:58.635Z,1.00
2022-11-23T23:17:45.393Z,0.70
2022-11-23T23:20:32.212Z,0.70
2022-11-23T23:23:19.072Z,0.80
2022-11-23T23:26:06.283Z,0.50
2022-11-23T23:28:57.138Z,0.67
2022-11-23T23:31:44.070Z,0.60
2022-11-23T23:34:31.530Z,0.40
2022-11-23T23:37:19.200Z,0.90
2022-11-23T23:40:07.076Z,0.60
2022-11-23T23:42:54.230Z,0.83
2022-11-23T23:45:43.737Z,0.90
2022-11-23T23:48:32.133Z,1.00
2022-11-23T23:51:20.935Z,1.20
2022-11-23T23:54:08.053Z,0.80
2022-11-23T23:56:54.883Z,0.80
2022-11-23T23:59:41.589Z,0.77
